sim
Sign-in with your pilot id or email,
or register
Callsign
Passwort

Schedule Details

Flight Number: DLH2163
Departure: Nuremberg Airport (EDDN) at 19:20
Arrival: Munich Airport (EDDM) at 20:00
Route: Lufthansa Passenger Schedule. Enter filed route here before submitting Pirep.

Weather Information
Getting current METAR information for EDDN 190620Z VRB01KT CAVOK 07/04 Q1021 NOSIG
Getting current METAR information for EDDM 190620Z 05005KT CAVOK 08/05 Q1020 NOSIG

Schedule Frequency

Route Map